HHR weather

Camino Real México Heliport
Miguel Hidalgo, Distrito Federal, Mexico

Public forecast

Using degrees Celsius for public forecast. Weather courtesy of forecast.io.

Closest aviation weather report (METAR) to Camino Real México Heliport

Closest report is Licenciado Benito Juarez International Airport, 6.1 nm (11.2 km) E. Retrieved 2019/10/18 11:52 UTC (39 minutes ago):

MMMX 181152Z 11006KT 8SM FEW012 SCT100 15/13 A3025 NOSIG RMK SLP091 52002 953 8/530 HZY LWR SC ISOL CI

Closest aviation forecast (TAF) to Camino Real México Heliport

Closest forecast is Licenciado Benito Juarez International Airport, 6.1 nm (11.2 km) E. Retrieved 2019/10/18 12:54 UTC (0 seconds ago):

TAF COR MMMX 181047Z 1812/1918 13005KT 6SM HZ SCT020 BKN080 TX19/1821Z TN12/1812Z TEMPO 1812/1814 BKN015 FM181500 13005KT P6SM SCT020 BKN100 FM182100 13010KT P6SM SCT015CB BKN080 TEMPO 1821/1901 3SM TSRA BKN015CB FM190300 03005KT P6SM SCT020 BKN080 TEMPO 1910/1914 BKN015 FM191500 13005KT P6SM SCT020